createdAt,value
2022-12-03T00:00:38.439Z,0.8
2022-12-03T00:01:45.739Z,0.7
2022-12-03T00:02:53.110Z,0.8
2022-12-03T00:04:00.443Z,0.7
2022-12-03T00:05:07.750Z,0.8
2022-12-03T00:06:14.761Z,0.7
2022-12-03T00:07:21.999Z,0.8
2022-12-03T00:08:29.153Z,0.8
2022-12-03T00:09:36.483Z,0.8
2022-12-03T00:10:43.355Z,0.8
2022-12-03T00:11:50.642Z,0.8
2022-12-03T00:12:57.859Z,0.8
2022-12-03T00:14:04.772Z,0.8
2022-12-03T00:15:11.936Z,0.8
2022-12-03T00:16:19.259Z,0.9
2022-12-03T00:17:26.307Z,0.9
2022-12-03T00:18:34.423Z,0.9
2022-12-03T00:19:41.788Z,0.8
2022-12-03T00:20:50.107Z,0.9
2022-12-03T00:21:56.963Z,0.9
2022-12-03T00:23:04.059Z,0.8
2022-12-03T00:24:11.206Z,0.8
2022-12-03T00:25:18.328Z,0.9
2022-12-03T00:26:25.612Z,0.9
2022-12-03T00:27:33.705Z,0.9
2022-12-03T00:28:40.847Z,0.9
2022-12-03T00:29:48.343Z,0.9
2022-12-03T00:30:55.729Z,0.8
2022-12-03T00:32:02.688Z,0.9
2022-12-03T00:33:09.907Z,0.7
2022-12-03T00:34:17.084Z,0.8
2022-12-03T00:35:24.207Z,0.8
2022-12-03T00:36:31.315Z,0.8
2022-12-03T00:37:38.539Z,0.8
2022-12-03T00:38:45.628Z,0.7
2022-12-03T00:39:52.868Z,0.8
2022-12-03T00:40:59.839Z,0.8
2022-12-03T00:42:07.027Z,0.6
2022-12-03T00:43:14.166Z,0.5
2022-12-03T00:44:21.688Z,0.6
2022-12-03T00:45:29.031Z,0.7
2022-12-03T00:46:36.230Z,0.8
2022-12-03T00:47:43.348Z,0.8
2022-12-03T00:48:50.575Z,0.8
2022-12-03T00:49:57.581Z,0.7
2022-12-03T00:51:05.443Z,0.7
2022-12-03T00:52:12.692Z,0.7
2022-12-03T00:53:20.083Z,0.7
2022-12-03T00:54:31.788Z,0.8
2022-12-03T00:55:34.307Z,0.8
2022-12-03T00:56:41.471Z,0.8
2022-12-03T00:57:48.299Z,0.9
2022-12-03T00:58:55.891Z,0.9
2022-12-03T01:00:03.260Z,0.9
2022-12-03T01:01:10.975Z,0.9
2022-12-03T01:02:18.063Z,0.8
2022-12-03T01:03:25.379Z,0.8
2022-12-03T01:04:32.249Z,0.9
2022-12-03T01:05:39.419Z,0.9
2022-12-03T01:06:46.571Z,0.9
2022-12-03T01:07:54.728Z,0.9
2022-12-03T01:09:01.848Z,0.9
2022-12-03T01:10:09.015Z,0.8
2022-12-03T01:11:16.175Z,0.6
2022-12-03T01:12:28.619Z,0.7
2022-12-03T01:13:36.000Z,0.8
2022-12-03T01:14:44.546Z,0.8
2022-12-03T01:15:51.750Z,0.8
2022-12-03T01:16:59.992Z,0.8
2022-12-03T01:18:06.915Z,0.8
2022-12-03T01:19:13.972Z,0.8
2022-12-03T01:20:21.135Z,0.8
2022-12-03T01:21:28.555Z,0.8
2022-12-03T01:22:35.460Z,0.8
2022-12-03T01:23:42.843Z,0.8
2022-12-03T01:24:49.958Z,0.8
2022-12-03T01:25:56.875Z,0.8
2022-12-03T01:27:03.922Z,0.8
2022-12-03T01:28:11.067Z,0.8
2022-12-03T01:29:18.227Z,0.9
2022-12-03T01:30:25.559Z,0.8
2022-12-03T01:31:32.639Z,0.8
2022-12-03T01:32:44.793Z,0.8
2022-12-03T01:33:51.855Z,0.7
2022-12-03T01:34:58.957Z,0.7
2022-12-03T01:36:06.091Z,0.8
2022-12-03T01:37:13.199Z,0.8
2022-12-03T01:38:20.459Z,0.8
2022-12-03T01:39:27.633Z,0.8
2022-12-03T01:40:35.615Z,0.8
2022-12-03T01:41:42.814Z,0.8
2022-12-03T01:42:50.100Z,0.8
2022-12-03T01:43:57.067Z,0.8
2022-12-03T01:45:04.352Z,0.9
2022-12-03T01:46:12.820Z,0.8
2022-12-03T01:47:19.709Z,0.8
2022-12-03T01:48:32.099Z,0.9
2022-12-03T01:49:39.203Z,0.9
2022-12-03T01:50:49.371Z,0.9
2022-12-03T01:51:56.341Z,1
2022-12-03T01:53:03.439Z,0.9
2022-12-03T01:54:10.600Z,0.9
2022-12-03T01:55:17.787Z,1
2022-12-03T01:56:24.998Z,0.9
2022-12-03T01:57:32.104Z,0.9
2022-12-03T01:58:45.403Z,1
2022-12-03T01:59:52.658Z,0.9
2022-12-03T02:00:59.596Z,1
2022-12-03T02:02:06.789Z,0.9
2022-12-03T02:03:16.448Z,0.9
2022-12-03T02:04:26.998Z,0.8
2022-12-03T02:05:33.847Z,0.8
2022-12-03T02:06:40.984Z,0.9
2022-12-03T02:07:48.263Z,0.9
2022-12-03T02:08:55.511Z,1
2022-12-03T02:10:02.734Z,1
2022-12-03T02:11:10.757Z,1
2022-12-03T02:12:23.302Z,0.9
2022-12-03T02:13:38.823Z,0.8
2022-12-03T02:14:45.831Z,0.9
2022-12-03T02:15:53.337Z,0.8
2022-12-03T02:17:00.630Z,0.8
2022-12-03T02:18:07.531Z,0.9
2022-12-03T02:19:14.944Z,0.8
2022-12-03T02:20:24.923Z,0.8
2022-12-03T02:21:32.055Z,0.6
2022-12-03T02:22:50.358Z,0.7
2022-12-03T02:24:07.662Z,0.7
2022-12-03T02:25:20.801Z,0.7
2022-12-03T02:26:28.095Z,0.8
2022-12-03T02:27:36.092Z,0.9
2022-12-03T02:28:43.447Z,0.9
2022-12-03T02:29:50.807Z,0.8
2022-12-03T02:30:57.855Z,0.8
2022-12-03T02:32:05.899Z,0.8
2022-12-03T02:33:12.978Z,0.8
2022-12-03T02:34:20.067Z,0.8
2022-12-03T02:35:37.580Z,0.8
2022-12-03T02:36:44.675Z,0.9
2022-12-03T02:37:51.764Z,0.9
2022-12-03T02:39:01.896Z,0.9
2022-12-03T02:40:09.067Z,1
2022-12-03T02:41:16.538Z,1
2022-12-03T02:42:28.983Z,0.9
2022-12-03T02:43:39.206Z,0.7
2022-12-03T02:44:46.387Z,0.8
2022-12-03T02:45:53.571Z,0.8
2022-12-03T02:47:00.677Z,0.8
2022-12-03T02:48:07.750Z,0.8
2022-12-03T02:49:14.841Z,0.8
2022-12-03T02:50:22.080Z,0.8
2022-12-03T02:51:30.093Z,0.8
2022-12-03T02:52:37.409Z,0.9
2022-12-03T02:53:44.755Z,0.8
2022-12-03T02:54:52.085Z,0.9
2022-12-03T02:55:58.951Z,0.8
2022-12-03T02:57:06.730Z,0.9
2022-12-03T02:58:14.489Z,0.9
2022-12-03T02:59:22.685Z,0.9
2022-12-03T03:00:30.383Z,1
2022-12-03T03:01:37.860Z,0.9
2022-12-03T03:02:44.756Z,0.9
2022-12-03T03:03:51.970Z,0.9
2022-12-03T03:04:59.085Z,0.9
2022-12-03T03:06:06.113Z,0.9
2022-12-03T03:07:13.260Z,1
2022-12-03T03:08:20.707Z,1
2022-12-03T03:09:27.946Z,1
2022-12-03T03:10:34.777Z,1
2022-12-03T03:11:42.455Z,1
2022-12-03T03:12:49.836Z,1
2022-12-03T03:13:56.756Z,0.9
2022-12-03T03:15:04.292Z,1
2022-12-03T03:16:12.283Z,1
2022-12-03T03:17:19.124Z,1
2022-12-03T03:18:26.281Z,1
2022-12-03T03:19:33.677Z,1.1
2022-12-03T03:20:40.620Z,1
2022-12-03T03:21:47.793Z,1
2022-12-03T03:22:55.016Z,1
2022-12-03T03:24:12.162Z,1
2022-12-03T03:25:19.421Z,1
2022-12-03T03:26:26.628Z,1.1
2022-12-03T03:27:33.649Z,1.1
2022-12-03T03:28:40.876Z,1.1
2022-12-03T03:29:50.572Z,1.2
2022-12-03T03:30:57.790Z,1.2
2022-12-03T03:32:04.896Z,1.1
2022-12-03T03:33:11.968Z,1.1
2022-12-03T03:34:19.330Z,1.1
2022-12-03T03:35:26.436Z,1.1
2022-12-03T03:36:33.384Z,1
2022-12-03T03:37:40.612Z,1
2022-12-03T03:38:47.721Z,1
2022-12-03T03:39:54.928Z,1
2022-12-03T03:41:02.196Z,1
2022-12-03T03:42:09.599Z,1
2022-12-03T03:43:16.732Z,1
2022-12-03T03:44:23.891Z,1
2022-12-03T03:45:31.124Z,1
2022-12-03T03:46:38.422Z,0.9
2022-12-03T03:47:45.405Z,0.9
2022-12-03T03:48:52.577Z,1
2022-12-03T03:50:00.627Z,1
2022-12-03T03:51:07.724Z,1
2022-12-03T03:52:14.884Z,1
2022-12-03T03:53:22.117Z,1
2022-12-03T03:54:29.345Z,1
2022-12-03T03:55:36.435Z,1
2022-12-03T03:56:43.632Z,1
2022-12-03T03:57:51.240Z,1
2022-12-03T03:58:58.468Z,1
2022-12-03T04:00:05.448Z,1
2022-12-03T04:01:12.775Z,1
2022-12-03T04:02:19.748Z,1
2022-12-03T04:03:26.937Z,1.1
2022-12-03T04:04:34.113Z,1
2022-12-03T04:05:41.216Z,1
2022-12-03T04:06:48.623Z,1
2022-12-03T04:07:55.576Z,1
2022-12-03T04:09:02.602Z,1
2022-12-03T04:10:09.653Z,1
2022-12-03T04:11:21.933Z,1
2022-12-03T04:12:34.236Z,1
2022-12-03T04:13:46.642Z,1
2022-12-03T04:14:54.076Z,1
2022-12-03T04:16:00.864Z,1
2022-12-03T04:17:07.828Z,1
2022-12-03T04:18:15.003Z,1
2022-12-03T04:19:27.258Z,1.1
2022-12-03T04:20:34.376Z,1.1
2022-12-03T04:21:41.640Z,1.1
2022-12-03T04:22:53.876Z,0.9
2022-12-03T04:24:01.028Z,0.8
2022-12-03T04:25:08.612Z,0.9
2022-12-03T04:26:21.605Z,0.9
2022-12-03T04:27:33.552Z,0.9
2022-12-03T04:28:43.916Z,1
2022-12-03T04:29:53.424Z,1
2022-12-03T04:31:00.620Z,1.1
2022-12-03T04:32:07.651Z,1.1
2022-12-03T04:33:19.848Z,1.1
2022-12-03T04:34:32.397Z,1.1
2022-12-03T04:35:44.470Z,1.1
2022-12-03T04:36:51.568Z,1.1
2022-12-03T04:37:58.788Z,1.1
2022-12-03T04:39:05.793Z,1.1
2022-12-03T04:40:13.041Z,1.1
2022-12-03T04:41:25.248Z,1.1
2022-12-03T04:42:32.532Z,1.1
2022-12-03T04:43:40.392Z,1.2
2022-12-03T04:44:52.920Z,1.2
2022-12-03T04:45:59.608Z,1.2
2022-12-03T04:47:06.444Z,1.2
2022-12-03T04:48:16.820Z,1.2
2022-12-03T04:49:23.844Z,1.2
2022-12-03T04:50:30.988Z,1.1
2022-12-03T04:51:38.099Z,1.1
2022-12-03T04:52:45.280Z,1.1
2022-12-03T04:53:52.480Z,1.1
2022-12-03T04:55:00.628Z,1.1
2022-12-03T04:56:08.525Z,1.1
2022-12-03T04:57:15.288Z,1.2
2022-12-03T04:58:22.495Z,1.1
2022-12-03T04:59:29.713Z,1.1
2022-12-03T05:00:36.897Z,1
2022-12-03T05:01:44.079Z,1.1
2022-12-03T05:02:51.227Z,1.1
2022-12-03T05:03:58.316Z,1.1
2022-12-03T05:05:05.359Z,1.2
2022-12-03T05:06:13.060Z,1.1
2022-12-03T05:07:20.538Z,1.1
2022-12-03T05:08:27.336Z,1.1
2022-12-03T05:09:34.505Z,1.1
2022-12-03T05:10:41.709Z,1.1
2022-12-03T05:11:48.860Z,1.1
2022-12-03T05:12:56.067Z,1.2
2022-12-03T05:14:03.317Z,1.2
2022-12-03T05:15:10.099Z,1.2
2022-12-03T05:16:17.345Z,1.2
2022-12-03T05:17:24.572Z,1.2
2022-12-03T05:18:31.672Z,1.2
2022-12-03T05:19:39.459Z,1.2
2022-12-03T05:20:53.595Z,1.2
2022-12-03T05:21:58.889Z,1.2
2022-12-03T05:23:06.017Z,1.2
2022-12-03T05:24:12.917Z,1.2
2022-12-03T05:25:20.115Z,1.2
2022-12-03T05:26:27.255Z,1.3
2022-12-03T05:27:34.432Z,1.3
2022-12-03T05:28:41.648Z,1.3
2022-12-03T05:29:48.943Z,1.3
2022-12-03T05:30:55.999Z,1.3
2022-12-03T05:32:03.187Z,1.3
2022-12-03T05:33:10.131Z,1.3
2022-12-03T05:34:17.336Z,1.3
2022-12-03T05:35:24.939Z,1.3
2022-12-03T05:36:32.155Z,1.2
2022-12-03T05:37:39.364Z,1.2
2022-12-03T05:38:46.761Z,1.2
2022-12-03T05:39:53.660Z,1.3
2022-12-03T05:41:00.879Z,1.3
2022-12-03T05:42:07.919Z,1.3
2022-12-03T05:43:20.112Z,1.2
2022-12-03T05:44:28.352Z,1.3
2022-12-03T05:45:35.436Z,1.1
2022-12-03T05:46:42.623Z,1.1
2022-12-03T05:47:49.756Z,1.1
2022-12-03T05:48:56.914Z,1.1
2022-12-03T05:50:04.348Z,1.2
2022-12-03T05:51:11.775Z,1.2
2022-12-03T05:52:18.719Z,1.2
2022-12-03T05:53:25.884Z,1.2
2022-12-03T05:54:33.059Z,1.2
2022-12-03T05:55:41.032Z,1.2
2022-12-03T05:56:48.079Z,1.2
2022-12-03T05:57:55.167Z,1.3
2022-12-03T05:59:02.156Z,1.2
2022-12-03T06:00:09.197Z,1.2
2022-12-03T06:01:16.387Z,1.2
2022-12-03T06:02:24.199Z,1.2
2022-12-03T06:03:31.383Z,1.2
2022-12-03T06:04:38.421Z,1.2
2022-12-03T06:05:45.544Z,1.3
2022-12-03T06:06:52.631Z,1.3
2022-12-03T06:08:00.030Z,1.2
2022-12-03T06:09:06.911Z,1.2
2022-12-03T06:10:14.048Z,1.3
2022-12-03T06:11:21.320Z,1.3
2022-12-03T06:12:28.340Z,1.3
2022-12-03T06:13:35.504Z,1.3
2022-12-03T06:14:42.710Z,1.3
2022-12-03T06:15:49.890Z,1.3
2022-12-03T06:16:57.176Z,1.3
2022-12-03T06:18:04.131Z,1.3
2022-12-03T06:19:11.119Z,1.3
2022-12-03T06:20:18.292Z,1.3
2022-12-03T06:21:25.500Z,1.3
2022-12-03T06:22:32.724Z,1.2
2022-12-03T06:23:40.640Z,1.2
2022-12-03T06:24:47.487Z,1.2
2022-12-03T06:25:54.616Z,1.2
2022-12-03T06:27:01.741Z,1.2
2022-12-03T06:28:08.796Z,1.3
2022-12-03T06:29:15.987Z,1.3
2022-12-03T06:30:23.103Z,1.3
2022-12-03T06:31:30.418Z,1.3
2022-12-03T06:32:37.451Z,1.3
2022-12-03T06:33:44.660Z,1.3
2022-12-03T06:34:52.529Z,1.2
2022-12-03T06:35:59.662Z,1.2
2022-12-03T06:37:07.579Z,1.3
2022-12-03T06:38:14.739Z,1.3
2022-12-03T06:39:22.100Z,1.3
2022-12-03T06:40:28.951Z,1.2
2022-12-03T06:41:36.147Z,1.2
2022-12-03T06:42:43.632Z,1.2
2022-12-03T06:43:50.436Z,1.2
2022-12-03T06:44:57.722Z,1.2
2022-12-03T06:46:05.738Z,1.2
2022-12-03T06:47:12.848Z,1.2
2022-12-03T06:48:20.837Z,1.2
2022-12-03T06:49:28.502Z,1.2
2022-12-03T06:50:35.343Z,1.2
2022-12-03T06:51:42.495Z,1.2
2022-12-03T06:52:49.618Z,1.2
2022-12-03T06:53:56.884Z,1.2
2022-12-03T06:55:04.260Z,1.2
2022-12-03T06:56:11.719Z,1.2
2022-12-03T06:57:18.789Z,1.2
2022-12-03T06:58:25.783Z,1.2
2022-12-03T06:59:32.988Z,1.2
2022-12-03T07:00:40.184Z,1.1
2022-12-03T07:01:47.421Z,1.2
2022-12-03T07:02:54.632Z,1.2
2022-12-03T07:04:01.859Z,1.1
2022-12-03T07:05:08.700Z,1.1
2022-12-03T07:06:15.879Z,1.2
2022-12-03T07:07:22.955Z,1.2
2022-12-03T07:08:30.212Z,1.2
2022-12-03T07:09:37.393Z,1.1
2022-12-03T07:10:44.487Z,1.1
2022-12-03T07:11:51.917Z,1.1
2022-12-03T07:12:58.791Z,1.2
2022-12-03T07:14:05.995Z,1.1
2022-12-03T07:15:13.199Z,1.1
2022-12-03T07:16:20.164Z,1.2
2022-12-03T07:17:27.291Z,1.2
2022-12-03T07:18:34.472Z,1.2
2022-12-03T07:19:41.624Z,1.2
2022-12-03T07:20:50.635Z,1.2
2022-12-03T07:21:57.596Z,1.2
2022-12-03T07:23:05.516Z,1.2
2022-12-03T07:24:12.627Z,1.2
2022-12-03T07:25:23.310Z,1.3
2022-12-03T07:26:27.003Z,1.3
2022-12-03T07:27:34.147Z,1.3
2022-12-03T07:28:41.428Z,1.3
2022-12-03T07:29:48.460Z,1.3
2022-12-03T07:30:55.641Z,1.3
2022-12-03T07:32:02.825Z,1.3
2022-12-03T07:33:10.064Z,1.3
2022-12-03T07:34:17.058Z,1.4
2022-12-03T07:35:24.104Z,1.4
2022-12-03T07:36:31.263Z,1.4
2022-12-03T07:37:38.411Z,1.3
2022-12-03T07:38:45.511Z,1.3
2022-12-03T07:39:52.703Z,1.3
2022-12-03T07:40:59.883Z,1.3
2022-12-03T07:42:06.955Z,1.3
2022-12-03T07:43:14.048Z,1.3
2022-12-03T07:44:22.055Z,1.3
2022-12-03T07:45:29.371Z,1.3
2022-12-03T07:46:37.467Z,1.3
2022-12-03T07:47:44.806Z,1.3
2022-12-03T07:48:51.959Z,1.3
2022-12-03T07:49:59.048Z,1.3
2022-12-03T07:51:06.332Z,1.4
2022-12-03T07:52:13.630Z,1.4
2022-12-03T07:53:20.808Z,1.4
2022-12-03T07:54:28.291Z,1.4
2022-12-03T07:55:35.671Z,1.4
2022-12-03T07:56:42.847Z,1.4
2022-12-03T07:57:49.929Z,1.4
2022-12-03T07:58:57.050Z,1.4
2022-12-03T08:00:04.255Z,1.3
2022-12-03T08:01:11.904Z,1.1
2022-12-03T08:02:21.490Z,1.2
2022-12-03T08:03:27.204Z,1.2
2022-12-03T08:04:34.188Z,1.2
2022-12-03T08:05:41.383Z,1.1
2022-12-03T08:06:48.863Z,1.2
2022-12-03T08:07:55.861Z,1.2
2022-12-03T08:09:02.996Z,1.2
2022-12-03T08:10:09.923Z,1.3
2022-12-03T08:11:17.095Z,1.3
2022-12-03T08:12:24.222Z,1.3
2022-12-03T08:13:36.491Z,1.3
2022-12-03T08:14:44.230Z,1.3
2022-12-03T08:15:51.432Z,1.3
2022-12-03T08:17:01.587Z,1.3
2022-12-03T08:18:09.779Z,1.3
2022-12-03T08:19:16.680Z,1.3
2022-12-03T08:20:23.783Z,1.4
2022-12-03T08:21:30.959Z,1.4
2022-12-03T08:22:38.099Z,1.3
2022-12-03T08:23:45.615Z,1.3
2022-12-03T08:24:53.098Z,1.3
2022-12-03T08:26:00.034Z,1.2
2022-12-03T08:27:07.252Z,1.2
2022-12-03T08:28:20.387Z,1.2
2022-12-03T08:29:27.579Z,1.2
2022-12-03T08:30:34.675Z,1.2
2022-12-03T08:31:42.689Z,1.2
2022-12-03T08:32:52.427Z,1.3
2022-12-03T08:33:59.675Z,1.3
2022-12-03T08:35:16.948Z,1.2
2022-12-03T08:36:24.043Z,1.2
2022-12-03T08:37:33.723Z,1.3
2022-12-03T08:38:41.026Z,1.2
2022-12-03T08:39:48.080Z,1.3
2022-12-03T08:40:55.547Z,1.3
2022-12-03T08:42:03.021Z,1.3
2022-12-03T08:43:20.602Z,1.4
2022-12-03T08:44:30.932Z,1.4
2022-12-03T08:45:38.244Z,1.4
2022-12-03T08:46:45.225Z,1.3
2022-12-03T08:48:02.556Z,1.2
2022-12-03T08:49:15.729Z,1.3
2022-12-03T08:50:23.197Z,1.4
2022-12-03T08:51:33.289Z,1.4
2022-12-03T08:52:40.063Z,1.4
2022-12-03T08:53:47.291Z,1.5
2022-12-03T08:54:54.816Z,1.4
2022-12-03T08:56:01.840Z,1.3
2022-12-03T08:57:19.347Z,1.3
2022-12-03T08:58:34.119Z,1.5
2022-12-03T08:59:45.550Z,1.4
2022-12-03T09:00:51.168Z,1.4
2022-12-03T09:02:01.267Z,1.4
2022-12-03T09:03:08.511Z,1.4
2022-12-03T09:04:21.642Z,1.4
2022-12-03T09:05:34.699Z,1.5
2022-12-03T09:06:41.971Z,1.5
2022-12-03T09:07:50.211Z,1.4
2022-12-03T09:08:59.320Z,1.5
2022-12-03T09:10:04.435Z,1.5
2022-12-03T09:11:11.491Z,1.6
2022-12-03T09:12:18.667Z,1.6
2022-12-03T09:13:25.915Z,1.6
2022-12-03T09:14:32.921Z,1.5
2022-12-03T09:15:40.111Z,1.5
2022-12-03T09:16:47.279Z,1.4
2022-12-03T09:17:57.312Z,1.3
2022-12-03T09:19:04.508Z,1.4
2022-12-03T09:20:11.575Z,1.4
2022-12-03T09:21:18.796Z,1.4
2022-12-03T09:22:25.891Z,1.4
2022-12-03T09:23:33.107Z,1.5
2022-12-03T09:24:40.175Z,1.4
2022-12-03T09:25:47.300Z,1.3
2022-12-03T09:26:55.547Z,1.3
2022-12-03T09:28:03.537Z,1.3
2022-12-03T09:29:12.511Z,1.2
2022-12-03T09:30:18.424Z,1.3
2022-12-03T09:31:25.764Z,1.4
2022-12-03T09:32:32.823Z,1.4
2022-12-03T09:33:39.859Z,1.4
2022-12-03T09:34:47.822Z,1.6
2022-12-03T09:35:54.627Z,1.5
2022-12-03T09:37:03.087Z,1.5
2022-12-03T09:38:10.436Z,1.6
2022-12-03T09:39:17.595Z,1.6
2022-12-03T09:40:24.690Z,1.5
2022-12-03T09:41:31.831Z,1.5
2022-12-03T09:42:38.986Z,1.5
2022-12-03T09:44:53.538Z,1.4
2022-12-03T09:46:00.603Z,1.4
2022-12-03T09:47:07.567Z,1.4
2022-12-03T09:48:14.721Z,1.4
2022-12-03T09:49:22.024Z,1.5
2022-12-03T09:50:29.023Z,1.6
2022-12-03T09:51:36.291Z,1.6
2022-12-03T09:52:43.319Z,1.7
2022-12-03T09:53:50.584Z,1.7
2022-12-03T09:54:58.689Z,1.7
2022-12-03T09:56:05.686Z,1.7
2022-12-03T09:57:22.975Z,1.8
2022-12-03T09:58:34.414Z,1.7
2022-12-03T09:59:37.371Z,1.6
2022-12-03T10:00:46.288Z,1.7
2022-12-03T10:01:53.146Z,1.6
2022-12-03T10:03:00.228Z,1.7
2022-12-03T10:04:07.494Z,1.5
2022-12-03T10:05:14.541Z,1.5
2022-12-03T10:06:24.680Z,1.5
2022-12-03T10:07:31.860Z,1.6
2022-12-03T10:08:39.157Z,1.6
2022-12-03T10:09:46.124Z,1.6
2022-12-03T10:10:53.205Z,1.6
2022-12-03T10:12:00.703Z,1.5
2022-12-03T10:13:08.455Z,1.6
2022-12-03T10:14:16.381Z,1.5
2022-12-03T10:15:24.042Z,1.5
2022-12-03T10:16:31.372Z,1.5
2022-12-03T10:17:38.492Z,1.6
2022-12-03T10:18:45.671Z,1.6
2022-12-03T10:19:55.585Z,1.7
2022-12-03T10:21:02.517Z,1.7
2022-12-03T10:22:09.629Z,1.6
2022-12-03T10:23:16.670Z,1.7
2022-12-03T10:24:26.814Z,1.7
2022-12-03T10:25:34.114Z,1.7
2022-12-03T10:26:42.768Z,1.7
2022-12-03T10:27:49.866Z,1.7
2022-12-03T10:29:02.185Z,1.7
2022-12-03T10:30:09.415Z,1.8
2022-12-03T10:31:22.967Z,1.8
2022-12-03T10:32:30.126Z,1.9
2022-12-03T10:33:46.245Z,1.9
2022-12-03T10:34:53.736Z,1.9
2022-12-03T10:36:09.139Z,1.9
2022-12-03T10:37:22.850Z,1.9
2022-12-03T10:38:30.128Z,1.9
2022-12-03T10:39:37.277Z,1.7
2022-12-03T10:40:54.534Z,1.7
2022-12-03T10:42:03.029Z,1.7
2022-12-03T10:43:18.853Z,1.8
2022-12-03T10:44:26.254Z,1.8
2022-12-03T10:45:33.826Z,1.7
2022-12-03T10:46:41.001Z,1.7
2022-12-03T10:47:49.846Z,1.8
2022-12-03T10:49:07.048Z,1.7
2022-12-03T10:50:19.328Z,1.8
2022-12-03T10:51:26.514Z,1.8
2022-12-03T10:52:33.469Z,1.7
2022-12-03T10:53:40.714Z,1.8
2022-12-03T10:54:47.761Z,1.9
2022-12-03T10:55:55.740Z,1.9
2022-12-03T10:57:02.893Z,2
2022-12-03T10:58:09.833Z,1.9
2022-12-03T10:59:21.921Z,1.9
2022-12-03T11:00:29.019Z,1.9
2022-12-03T11:01:36.324Z,2
2022-12-03T11:02:43.369Z,2
2022-12-03T11:03:50.615Z,2.1
2022-12-03T11:04:58.481Z,2
2022-12-03T11:06:05.714Z,2
2022-12-03T11:07:13.348Z,1.9
2022-12-03T11:08:23.150Z,1.9
2022-12-03T11:09:30.209Z,2
2022-12-03T11:10:37.305Z,2
2022-12-03T11:11:44.527Z,2.1
2022-12-03T11:12:51.605Z,2.1
2022-12-03T11:14:09.958Z,2
2022-12-03T11:15:17.545Z,2
2022-12-03T11:16:24.852Z,2
2022-12-03T11:17:42.493Z,1.9
2022-12-03T11:18:49.766Z,1.9
2022-12-03T11:19:57.886Z,1.9
2022-12-03T11:21:05.254Z,2.1
2022-12-03T11:22:11.997Z,2
2022-12-03T11:23:30.318Z,2
2022-12-03T11:24:47.917Z,2.1
2022-12-03T11:26:05.781Z,2
2022-12-03T11:27:12.649Z,2
2022-12-03T11:28:20.131Z,2.1
2022-12-03T11:29:27.191Z,2.1
2022-12-03T11:30:44.926Z,2.1
2022-12-03T11:31:52.322Z,2
2022-12-03T11:32:59.221Z,2
2022-12-03T11:34:06.262Z,2.1
2022-12-03T11:35:22.521Z,2.1
2022-12-03T11:36:47.970Z,2
2022-12-03T11:37:36.840Z,2
2022-12-03T11:38:49.136Z,2
2022-12-03T11:39:51.492Z,2
2022-12-03T11:40:59.225Z,2
2022-12-03T11:42:11.446Z,2
2022-12-03T11:43:26.730Z,2.1
2022-12-03T11:44:44.037Z,2.1
2022-12-03T11:45:51.230Z,2.1
2022-12-03T11:46:58.439Z,2
2022-12-03T11:48:05.526Z,2
2022-12-03T11:49:15.542Z,2
2022-12-03T11:50:25.262Z,2
2022-12-03T11:51:32.409Z,2
2022-12-03T11:52:39.590Z,2
2022-12-03T11:53:46.911Z,2.1
2022-12-03T11:54:53.961Z,2.1
2022-12-03T11:56:04.657Z,2.1
2022-12-03T11:57:10.301Z,2.2
2022-12-03T11:58:22.346Z,2.2
2022-12-03T11:59:29.501Z,2.2
2022-12-03T12:00:36.694Z,2.2
2022-12-03T12:01:43.918Z,2.3
2022-12-03T12:02:51.941Z,2.3
2022-12-03T12:03:58.875Z,2.2
2022-12-03T12:05:06.709Z,2.2
2022-12-03T12:06:21.562Z,2.2
2022-12-03T12:07:28.668Z,2.3
2022-12-03T12:08:38.397Z,2.3
2022-12-03T12:09:50.877Z,2.3
2022-12-03T12:10:57.997Z,2.3
2022-12-03T12:12:04.859Z,2.3
2022-12-03T12:13:22.374Z,2.3
2022-12-03T12:14:30.329Z,2.1
2022-12-03T12:15:37.637Z,2.2
2022-12-03T12:16:47.797Z,2.2
2022-12-03T12:17:55.762Z,2.3
2022-12-03T12:19:14.021Z,2.2
2022-12-03T12:20:31.602Z,2.2
2022-12-03T12:21:38.701Z,2.1
2022-12-03T12:22:46.645Z,2.1
2022-12-03T12:23:54.705Z,2.1
2022-12-03T12:25:03.185Z,2.1
2022-12-03T12:26:20.691Z,2
2022-12-03T12:27:27.721Z,2
2022-12-03T12:28:42.817Z,2
2022-12-03T12:29:49.914Z,2
2022-12-03T12:30:57.038Z,2
2022-12-03T12:32:04.318Z,2.1
2022-12-03T12:33:13.930Z,2.1
2022-12-03T12:34:23.578Z,2.1
2022-12-03T12:35:30.685Z,2
2022-12-03T12:36:37.789Z,2
2022-12-03T12:37:47.669Z,2
2022-12-03T12:38:58.049Z,2
2022-12-03T12:40:05.366Z,1.9
2022-12-03T12:41:15.521Z,2
2022-12-03T12:42:22.653Z,2
2022-12-03T12:43:37.914Z,2
2022-12-03T12:44:45.118Z,2
2022-12-03T12:45:52.286Z,1.9
2022-12-03T12:46:59.344Z,2
2022-12-03T12:48:07.649Z,2
2022-12-03T12:49:17.993Z,2
2022-12-03T12:50:24.873Z,2
2022-12-03T12:51:32.038Z,2.1
2022-12-03T12:52:39.298Z,2.1
2022-12-03T12:53:57.201Z,2
2022-12-03T12:55:05.285Z,2
2022-12-03T12:56:11.182Z,1.7
2022-12-03T12:57:26.021Z,1.8
2022-12-03T12:58:33.085Z,1.9
2022-12-03T12:59:41.157Z,1.9
2022-12-03T13:00:48.464Z,1.9
2022-12-03T13:01:58.736Z,1.8
2022-12-03T13:03:05.713Z,1.7
2022-12-03T13:04:13.890Z,1.7
2022-12-03T13:05:24.055Z,1.7
2022-12-03T13:06:36.353Z,1.8
2022-12-03T13:07:43.524Z,1.8
2022-12-03T13:08:50.685Z,1.8
2022-12-03T13:09:57.929Z,1.8
2022-12-03T13:11:05.209Z,1.8
2022-12-03T13:12:22.709Z,1.7
2022-12-03T13:13:29.936Z,1.7
2022-12-03T13:14:45.110Z,1.8
2022-12-03T13:15:53.164Z,1.7
2022-12-03T13:17:05.253Z,1.7
2022-12-03T13:18:17.585Z,1.7
2022-12-03T13:19:30.050Z,1.7
2022-12-03T13:20:37.137Z,1.7
2022-12-03T13:21:44.462Z,1.7
2022-12-03T13:22:51.485Z,1.7
2022-12-03T13:23:58.693Z,1.7
2022-12-03T13:25:06.103Z,1.6
2022-12-03T13:26:29.411Z,1.6
2022-12-03T13:27:25.652Z,1.5
2022-12-03T13:28:35.357Z,1.5
2022-12-03T13:29:42.815Z,1.5
2022-12-03T13:30:49.647Z,1.6
2022-12-03T13:31:57.014Z,1.5
2022-12-03T13:33:07.121Z,1.5
2022-12-03T13:34:17.410Z,1.5
2022-12-03T13:35:24.328Z,1.4
2022-12-03T13:36:32.005Z,1.5
2022-12-03T13:37:39.102Z,1.6
2022-12-03T13:38:46.345Z,1.5
2022-12-03T13:39:53.682Z,1.6
2022-12-03T13:41:00.813Z,1.6
2022-12-03T13:42:07.750Z,1.6
2022-12-03T13:43:25.026Z,1.5
2022-12-03T13:44:32.990Z,1.5
2022-12-03T13:45:39.930Z,1.4
2022-12-03T13:46:47.885Z,1.4
2022-12-03T13:47:55.132Z,1.3
2022-12-03T13:49:02.401Z,1.4
2022-12-03T13:50:19.918Z,1.3
2022-12-03T13:51:32.489Z,1.3
2022-12-03T13:52:39.329Z,1.3
2022-12-03T13:53:46.536Z,1.3
2022-12-03T13:54:53.785Z,1.4
2022-12-03T13:56:01.197Z,1.4
2022-12-03T13:57:18.681Z,1.3
2022-12-03T13:58:26.469Z,1.4
2022-12-03T13:59:34.926Z,1.4
2022-12-03T14:00:42.103Z,1.3
2022-12-03T14:01:49.059Z,1.3
2022-12-03T14:02:56.305Z,1.3
2022-12-03T14:04:03.378Z,1.3
2022-12-03T14:05:10.449Z,1.2
2022-12-03T14:06:17.905Z,1.3
2022-12-03T14:07:25.406Z,1.4
2022-12-03T14:08:32.393Z,1.4
2022-12-03T14:09:39.577Z,1.4
2022-12-03T14:10:46.994Z,1.5
2022-12-03T14:11:53.873Z,1.5
2022-12-03T14:13:06.159Z,1.5
2022-12-03T14:14:13.300Z,1.5
2022-12-03T14:15:21.437Z,1.5
2022-12-03T14:16:29.062Z,1.5
2022-12-03T14:17:36.110Z,1.5
2022-12-03T14:18:44.013Z,1.5
2022-12-03T14:19:50.961Z,1.4
2022-12-03T14:20:58.361Z,1.4
2022-12-03T14:22:05.713Z,1.5
2022-12-03T14:23:13.064Z,1.5
2022-12-03T14:24:20.089Z,1.4
2022-12-03T14:25:27.101Z,1.4
2022-12-03T14:26:34.308Z,1.4
2022-12-03T14:27:41.396Z,1.5
2022-12-03T14:28:49.226Z,1.5
2022-12-03T14:29:56.680Z,1.5
2022-12-03T14:31:03.535Z,1.5
2022-12-03T14:32:10.476Z,1.5
2022-12-03T14:33:17.595Z,1.5
2022-12-03T14:34:24.664Z,1.5
2022-12-03T14:35:32.801Z,1.5
2022-12-03T14:36:40.117Z,1.5
2022-12-03T14:37:48.356Z,1.6
2022-12-03T14:38:55.436Z,1.5
2022-12-03T14:40:02.856Z,1.5
2022-12-03T14:41:11.113Z,1.4
2022-12-03T14:42:23.393Z,1.4
2022-12-03T14:43:30.533Z,1.4
2022-12-03T14:44:37.646Z,1.4
2022-12-03T14:45:45.213Z,1.4
2022-12-03T14:46:56.717Z,1.4
2022-12-03T14:47:59.453Z,1.4
2022-12-03T14:49:06.349Z,1.3
2022-12-03T14:50:14.586Z,1.3
2022-12-03T14:51:21.517Z,1.4
2022-12-03T14:52:28.676Z,1.4
2022-12-03T14:53:35.896Z,1.4
2022-12-03T14:54:43.177Z,1.4
2022-12-03T14:55:50.518Z,1.3
2022-12-03T14:56:57.781Z,1.3
2022-12-03T14:58:04.991Z,1.3
2022-12-03T14:59:13.004Z,1.2
2022-12-03T15:00:20.149Z,1.2
2022-12-03T15:01:27.399Z,1.3
2022-12-03T15:02:34.538Z,1.3
2022-12-03T15:03:41.576Z,1.3
2022-12-03T15:04:48.809Z,1.3
2022-12-03T15:05:56.925Z,1.2
2022-12-03T15:07:04.165Z,1.3
2022-12-03T15:08:12.217Z,1.2
2022-12-03T15:09:20.247Z,1.2
2022-12-03T15:10:28.745Z,1.2
2022-12-03T15:11:35.756Z,1.1
2022-12-03T15:12:42.884Z,1.1
2022-12-03T15:13:50.273Z,1.1
2022-12-03T15:14:57.229Z,1.2
2022-12-03T15:16:04.638Z,1.2
2022-12-03T15:17:11.964Z,1.1
2022-12-03T15:18:19.084Z,1.2
2022-12-03T15:19:26.451Z,1.3
2022-12-03T15:20:33.572Z,1.2
2022-12-03T15:21:40.553Z,1.1
2022-12-03T15:22:47.749Z,1.1
2022-12-03T15:23:55.840Z,1.1
2022-12-03T15:25:03.705Z,1.1
2022-12-03T15:26:11.405Z,1.2
2022-12-03T15:27:18.244Z,1.1
2022-12-03T15:28:25.429Z,1.2
2022-12-03T15:29:33.197Z,1.3
2022-12-03T15:30:40.230Z,1.2
2022-12-03T15:31:48.363Z,1.3
2022-12-03T15:32:55.717Z,1.2
2022-12-03T15:34:02.812Z,1.2
2022-12-03T15:35:09.831Z,1.2
2022-12-03T15:36:17.108Z,1.2
2022-12-03T15:37:24.288Z,1.2
2022-12-03T15:38:31.328Z,1.1
2022-12-03T15:39:42.512Z,1.2
2022-12-03T15:40:46.097Z,1.2
2022-12-03T15:41:53.268Z,1.2
2022-12-03T15:43:00.425Z,1.2
2022-12-03T15:44:07.769Z,1.1
2022-12-03T15:45:15.604Z,1.2
2022-12-03T15:46:22.775Z,1.2
2022-12-03T15:47:30.069Z,1.2